Time;durP1;ratioP1;P1;durP2;ratioP2;P2;SDS_P1;SDS_P2;PMS_P1;PMS_P2;Temp;Humidity;BMP_temperature;BMP_pressure;BME280_temperature;BME280_humidity;BME280_pressure;Samples;Min_cycle;Max_cycle;Signal;HPM_P1;HPM_P2
2022/07/02 00:02:28;;;;;;;25.08;10.15;;;;;;;;;;7337628;19;161845;-17
2022/07/02 00:05:02;;;;;;;22.15;9.52;;;;;;;;;;7332116;19;162454;-17
2022/07/02 00:07:33;;;;;;;23.77;9.98;;;;;;;;;;7335011;19;154087;-17
2022/07/02 00:10:09;;;;;;;19.85;10.05;;;;;;;;;;7335109;19;153682;-17
2022/07/02 00:12:40;;;;;;;22.55;10.48;;;;;;;;;;7334516;19;161948;-17
2022/07/02 00:15:12;;;;;;;20.45;10.15;;;;;;;;;;7334229;19;162372;-16
2022/07/02 00:17:44;;;;;;;21.92;9.73;;;;;;;;;;7334640;19;153910;-17
2022/07/02 00:20:15;;;;;;;24.25;9.50;;;;;;;;;;7334794;19;153547;-17
2022/07/02 00:22:47;;;;;;;22.77;10.00;;;;;;;;;;7337157;19;161834;-18
2022/07/02 00:25:21;;;;;;;20.25;9.55;;;;;;;;;;7336332;19;162523;-17
2022/07/02 00:27:53;;;;;;;19.98;9.45;;;;;;;;;;7337984;19;154084;-17
2022/07/02 00:30:25;;;;;;;24.67;9.60;;;;;;;;;;7334046;19;153184;-17
2022/07/02 00:32:56;;;;;;;19.08;9.18;;;;;;;;;;7333665;19;161855;-16
2022/07/02 00:35:27;;;;;;;18.88;8.75;;;;;;;;;;7331425;19;162334;-17
2022/07/02 00:38:00;;;;;;;20.95;10.20;;;;;;;;;;7331314;19;154115;-16
2022/07/02 00:40:34;;;;;;;19.43;9.00;;;;;;;;;;7333307;19;154073;-17
2022/07/02 00:43:06;;;;;;;21.38;8.35;;;;;;;;;;7333277;19;161712;-16
2022/07/02 00:45:37;;;;;;;18.80;8.55;;;;;;;;;;7331356;19;162283;-17
2022/07/02 00:48:09;;;;;;;17.35;8.88;;;;;;;;;;7333657;19;154050;-16
2022/07/02 00:50:40;;;;;;;20.80;8.57;;;;;;;;;;7335813;19;153946;-17
2022/07/02 00:53:12;;;;;;;19.95;7.93;;;;;;;;;;7333180;19;162034;-17
2022/07/02 00:55:45;;;;;;;18.92;8.40;;;;;;;;;;7333134;19;162575;-17
2022/07/02 00:58:17;;;;;;;19.50;8.75;;;;;;;;;;7333707;19;154378;-17
2022/07/02 01:00:48;;;;;;;22.35;9.05;;;;;;;;;;7333328;19;153510;-17
2022/07/02 01:03:21;;;;;;;17.98;8.50;;;;;;;;;;7332913;19;161753;-17
2022/07/02 01:05:54;;;;;;;17.65;7.90;;;;;;;;;;7331241;19;162401;-17
2022/07/02 01:11:15;;;;;;;17.20;8.05;;;;;;;;;;7331887;19;153917;-17
2022/07/02 01:13:46;;;;;;;13.82;5.78;;;;;;;;;;7332696;19;162130;-17
2022/07/02 01:16:17;;;;;;;14.15;5.05;;;;;;;;;;7332542;19;162407;-16
2022/07/02 01:18:48;;;;;;;13.70;5.68;;;;;;;;;;7333075;19;154046;-17
2022/07/02 01:21:20;;;;;;;14.88;5.82;;;;;;;;;;7333028;19;153545;-16
2022/07/02 01:23:56;;;;;;;16.58;5.43;;;;;;;;;;7332726;19;161957;-17
2022/07/02 01:26:28;;;;;;;12.85;6.47;;;;;;;;;;7330563;19;162717;-16
2022/07/02 01:28:59;;;;;;;18.50;6.18;;;;;;;;;;7331794;19;154307;-15
2022/07/02 01:31:30;;;;;;;12.35;5.70;;;;;;;;;;7332865;19;153722;-16
2022/07/02 01:34:01;;;;;;;14.27;6.20;;;;;;;;;;7331136;19;161976;-18
2022/07/02 01:36:33;;;;;;;14.25;6.05;;;;;;;;;;7332201;19;162381;-16
2022/07/02 01:39:06;;;;;;;10.02;5.13;;;;;;;;;;7331274;19;154059;-16
2022/07/02 01:41:44;;;;;;;14.18;6.03;;;;;;;;;;7332402;19;132600;-16
2022/07/02 01:44:15;;;;;;;13.02;5.88;;;;;;;;;;7332052;19;161867;-16
2022/07/02 01:46:47;;;;;;;12.63;5.25;;;;;;;;;;7329777;19;162586;-16
2022/07/02 01:49:18;;;;;;;9.98;5.22;;;;;;;;;;7332243;19;154036;-16
2022/07/02 01:51:50;;;;;;;12.65;5.03;;;;;;;;;;7332183;19;154275;-16
2022/07/02 01:54:24;;;;;;;14.00;5.43;;;;;;;;;;7331761;19;161910;-16
2022/07/02 01:56:55;;;;;;;12.48;5.30;;;;;;;;;;7331623;19;162479;-16
2022/07/02 01:59:26;;;;;;;8.95;5.03;;;;;;;;;;7333082;19;154057;-16
2022/07/02 02:01:57;;;;;;;11.25;5.45;;;;;;;;;;7335400;19;153706;-16
2022/07/02 02:04:29;;;;;;;9.40;4.70;;;;;;;;;;7334687;19;161901;-16
2022/07/02 02:07:00;;;;;;;10.52;4.78;;;;;;;;;;7330932;19;162565;-16
2022/07/02 02:09:35;;;;;;;13.93;5.25;;;;;;;;;;7334034;19;154283;-16
2022/07/02 02:12:08;;;;;;;13.50;5.43;;;;;;;;;;7334197;19;153568;-16
2022/07/02 02:14:39;;;;;;;12.38;5.32;;;;;;;;;;7333877;19;161890;-16
2022/07/02 02:17:10;;;;;;;11.02;5.57;;;;;;;;;;7332768;19;162424;-17
2022/07/02 02:19:42;;;;;;;11.05;5.10;;;;;;;;;;7333931;19;154235;-17
2022/07/02 02:22:13;;;;;;;7.60;4.63;;;;;;;;;;7333221;19;153935;-17
2022/07/02 02:24:48;;;;;;;10.43;5.15;;;;;;;;;;7333376;19;161847;-17
2022/07/02 02:27:19;;;;;;;10.45;4.78;;;;;;;;;;7331304;19;162995;-16
2022/07/02 02:29:50;;;;;;;12.18;5.72;;;;;;;;;;7334878;19;154311;-17
2022/07/02 02:32:23;;;;;;;8.97;4.53;;;;;;;;;;7334060;19;153547;-18
2022/07/02 02:34:55;;;;;;;11.77;4.93;;;;;;;;;;7331517;19;161869;-17
2022/07/02 02:37:27;;;;;;;10.23;5.30;;;;;;;;;;7333147;19;162453;-17
2022/07/02 02:40:01;;;;;;;9.50;4.50;;;;;;;;;;7332880;19;154130;-17
2022/07/02 02:42:32;;;;;;;12.65;4.50;;;;;;;;;;7333916;19;153775;-17
2022/07/02 02:45:04;;;;;;;7.93;4.68;;;;;;;;;;7332363;19;162069;-16
2022/07/02 02:47:35;;;;;;;9.82;4.70;;;;;;;;;;7328902;19;162627;-16
2022/07/02 02:50:07;;;;;;;11.95;5.05;;;;;;;;;;7332323;19;154116;-16
2022/07/02 02:52:39;;;;;;;9.07;4.40;;;;;;;;;;7333462;19;153821;-17
2022/07/02 02:55:13;;;;;;;9.05;4.25;;;;;;;;;;7332617;19;161878;-16
2022/07/02 02:57:44;;;;;;;8.80;4.60;;;;;;;;;;7333223;19;162141;-16
2022/07/02 03:00:16;;;;;;;10.75;4.93;;;;;;;;;;7331954;19;154108;-16
2022/07/02 03:02:47;;;;;;;8.00;4.67;;;;;;;;;;7333490;19;153657;-17
2022/07/02 03:05:19;;;;;;;11.70;4.88;;;;;;;;;;7332712;19;161806;-17
2022/07/02 03:07:50;;;;;;;8.10;4.65;;;;;;;;;;7330856;19;162406;-16
2022/07/02 03:10:25;;;;;;;8.48;4.50;;;;;;;;;;7333490;19;154048;-16
2022/07/02 03:12:56;;;;;;;8.50;4.68;;;;;;;;;;7332249;19;153676;-17
2022/07/02 03:15:28;;;;;;;8.70;4.70;;;;;;;;;;7332748;19;162130;-16
2022/07/02 03:17:59;;;;;;;8.60;4.28;;;;;;;;;;7332719;19;162349;-17
2022/07/02 03:20:31;;;;;;;9.30;4.55;;;;;;;;;;7331044;19;153856;-17
2022/07/02 03:23:02;;;;;;;10.02;4.63;;;;;;;;;;7332920;19;153550;-17
2022/07/02 03:25:36;;;;;;;8.27;4.20;;;;;;;;;;7330893;19;161831;-16
2022/07/02 03:28:09;;;;;;;7.15;4.22;;;;;;;;;;7329000;19;162555;-16
2022/07/02 03:30:40;;;;;;;7.25;4.03;;;;;;;;;;7332607;19;154365;-17
2022/07/02 03:33:11;;;;;;;8.35;4.70;;;;;;;;;;7331547;19;153524;-16
2022/07/02 03:35:43;;;;;;;8.32;3.90;;;;;;;;;;7331995;19;161975;-17
2022/07/02 03:38:14;;;;;;;8.43;3.95;;;;;;;;;;7330562;19;162525;-16
2022/07/02 03:40:48;;;;;;;11.63;4.53;;;;;;;;;;7331961;19;154268;-17
2022/07/02 03:43:19;;;;;;;6.75;3.88;;;;;;;;;;7331918;19;153742;-16
2022/07/02 03:45:50;;;;;;;8.05;4.18;;;;;;;;;;7331096;19;161988;-17
2022/07/02 03:48:22;;;;;;;8.98;4.22;;;;;;;;;;7328941;19;162503;-16
2022/07/02 03:50:53;;;;;;;8.60;4.22;;;;;;;;;;7332234;19;154231;-16
2022/07/02 03:53:24;;;;;;;8.82;4.03;;;;;;;;;;7331874;19;153525;-17
2022/07/02 03:55:58;;;;;;;8.88;4.60;;;;;;;;;;7331461;19;161872;-16
2022/07/02 03:58:30;;;;;;;7.43;3.67;;;;;;;;;;7331245;19;162742;-16
2022/07/02 04:01:04;;;;;;;6.50;4.07;;;;;;;;;;7330874;19;154081;-16
2022/07/02 04:03:35;;;;;;;7.43;4.15;;;;;;;;;;7331092;19;153618;-17
2022/07/02 04:06:07;;;;;;;7.43;4.22;;;;;;;;;;7331228;19;161992;-16
2022/07/02 04:08:38;;;;;;;8.45;4.68;;;;;;;;;;7329276;19;162067;-17
2022/07/02 04:11:12;;;;;;;8.30;4.32;;;;;;;;;;7331677;19;154285;-16
2022/07/02 04:13:44;;;;;;;7.25;3.95;;;;;;;;;;7331598;19;153727;-17
2022/07/02 04:16:15;;;;;;;8.30;4.05;;;;;;;;;;7331215;19;162294;-17
2022/07/02 04:18:46;;;;;;;7.30;4.20;;;;;;;;;;7331177;19;162363;-16
2022/07/02 04:21:34;;;;;;;9.02;4.45;;;;;;;;;;7331282;19;154169;-17
2022/07/02 04:24:05;;;;;;;7.63;3.80;;;;;;;;;;7331305;19;153492;-16
2022/07/02 04:26:39;;;;;;;5.85;3.85;;;;;;;;;;7329806;19;161697;-17
2022/07/02 04:29:11;;;;;;;5.85;3.90;;;;;;;;;;7331324;19;162481;-18
2022/07/02 04:31:42;;;;;;;7.72;3.70;;;;;;;;;;7336385;19;154191;-17
2022/07/02 04:34:14;;;;;;;6.97;3.83;;;;;;;;;;7335307;19;153713;-16
2022/07/02 04:36:45;;;;;;;7.18;3.97;;;;;;;;;;7337731;19;161677;-17
2022/07/02 04:39:17;;;;;;;6.13;3.20;;;;;;;;;;7337506;19;162374;-17
2022/07/02 04:41:51;;;;;;;6.53;3.92;;;;;;;;;;7337733;19;154112;-17
2022/07/02 04:44:24;;;;;;;8.25;3.83;;;;;;;;;;7336949;19;153715;-17
2022/07/02 04:46:55;;;;;;;6.60;3.93;;;;;;;;;;7335315;19;161939;-17
2022/07/02 04:49:26;;;;;;;7.22;3.78;;;;;;;;;;7337051;19;162726;-17
2022/07/02 04:51:58;;;;;;;6.28;3.83;;;;;;;;;;7337287;19;154061;-23
2022/07/02 04:54:30;;;;;;;7.63;4.30;;;;;;;;;;7335884;19;153501;-17
2022/07/02 04:57:04;;;;;;;7.50;3.30;;;;;;;;;;7335299;19;161871;-17
2022/07/02 04:59:35;;;;;;;6.30;3.65;;;;;;;;;;7336963;19;162570;-15
2022/07/02 05:02:08;;;;;;;6.20;3.47;;;;;;;;;;7335447;19;154277;-17
2022/07/02 05:04:39;;;;;;;6.35;3.55;;;;;;;;;;7336387;19;153557;-17
2022/07/02 05:07:11;;;;;;;6.75;3.90;;;;;;;;;;7336264;19;162122;-16
2022/07/02 05:09:42;;;;;;;4.72;3.03;;;;;;;;;;7334926;19;162449;-17
2022/07/02 05:12:16;;;;;;;7.70;4.05;;;;;;;;;;7337084;19;154105;-16
2022/07/02 05:14:48;;;;;;;5.95;3.92;;;;;;;;;;7336682;19;153464;-16
2022/07/02 05:17:19;;;;;;;8.13;3.80;;;;;;;;;;7335017;19;162210;-16
2022/07/02 05:19:51;;;;;;;7.30;3.70;;;;;;;;;;7334944;19;162650;-16
2022/07/02 05:22:22;;;;;;;7.15;3.88;;;;;;;;;;7336989;19;154160;-16
2022/07/02 05:24:54;;;;;;;5.30;3.28;;;;;;;;;;7333132;19;153766;-16
2022/07/02 05:27:27;;;;;;;6.22;3.38;;;;;;;;;;7332834;19;162081;-16
2022/07/02 05:29:59;;;;;;;6.85;3.35;;;;;;;;;;7332880;19;162406;-16
2022/07/02 05:32:30;;;;;;;5.18;3.38;;;;;;;;;;7333049;19;154320;-16
2022/07/02 05:35:02;;;;;;;5.13;2.97;;;;;;;;;;7330107;19;153683;-16
2022/07/02 05:37:33;;;;;;;4.25;2.30;;;;;;;;;;7332452;19;162079;-16
2022/07/02 05:40:05;;;;;;;7.70;3.13;;;;;;;;;;7332190;19;162457;-16
2022/07/02 05:42:39;;;;;;;7.33;2.80;;;;;;;;;;7330544;19;154145;-16
2022/07/02 05:45:11;;;;;;;3.97;2.63;;;;;;;;;;7331282;19;154152;-16
2022/07/02 05:47:42;;;;;;;12.83;2.67;;;;;;;;;;7332990;19;162091;-16
2022/07/02 05:50:14;;;;;;;6.47;2.08;;;;;;;;;;7335210;19;162474;-16
2022/07/02 05:52:45;;;;;;;13.73;3.03;;;;;;;;;;7335253;19;154238;-16
2022/07/02 05:55:16;;;;;;;10.45;2.80;;;;;;;;;;7331314;19;153674;-16
2022/07/02 05:57:50;;;;;;;9.63;2.50;;;;;;;;;;7327751;19;161868;-16
2022/07/02 06:00:22;;;;;;;9.40;2.55;;;;;;;;;;7329066;19;162395;-17
2022/07/02 06:02:53;;;;;;;9.20;2.42;;;;;;;;;;7330925;19;154065;-16
2022/07/02 06:08:08;;;;;;;12.25;3.17;;;;;;;;;;7331291;19;161868;-16
2022/07/02 06:10:39;;;;;;;8.85;2.67;;;;;;;;;;7331570;19;162089;-16
2022/07/02 06:13:14;;;;;;;12.00;3.67;;;;;;;;;;7331654;19;154089;-16
2022/07/02 06:15:45;;;;;;;12.45;3.08;;;;;;;;;;7331651;19;153515;-16
2022/07/02 06:18:17;;;;;;;12.68;3.45;;;;;;;;;;7329928;19;162019;-16
2022/07/02 06:20:48;;;;;;;10.80;2.78;;;;;;;;;;7331181;19;162535;-16
2022/07/02 06:23:21;;;;;;;6.95;2.40;;;;;;;;;;7331544;19;154098;-16
2022/07/02 06:25:52;;;;;;;8.50;2.90;;;;;;;;;;7331456;19;153572;-16
2022/07/02 06:28:26;;;;;;;11.30;2.70;;;;;;;;;;7330680;19;161876;-16
2022/07/02 06:30:58;;;;;;;8.57;2.50;;;;;;;;;;7331036;19;162355;-16
2022/07/02 06:33:29;;;;;;;11.10;2.20;;;;;;;;;;7330280;19;154138;-16
2022/07/02 06:36:00;;;;;;;7.30;2.53;;;;;;;;;;7331159;19;153669;-16
2022/07/02 06:38:31;;;;;;;16.60;2.35;;;;;;;;;;7330845;19;162015;-15
2022/07/02 06:42:18;;;;;;;10.63;3.10;;;;;;;;;;7330662;19;162606;-16
2022/07/02 06:43:56;;;;;;;9.18;2.53;;;;;;;;;;7330777;19;154079;-16
2022/07/02 06:46:27;;;;;;;10.02;2.78;;;;;;;;;;7330856;19;153637;-16
2022/07/02 06:48:59;;;;;;;10.50;2.70;;;;;;;;;;7329413;19;162011;-16
2022/07/02 06:51:30;;;;;;;8.23;2.80;;;;;;;;;;7330312;19;162342;-16
2022/07/02 06:54:02;;;;;;;7.85;2.47;;;;;;;;;;7330505;19;154139;-16
2022/07/02 06:56:36;;;;;;;6.33;2.43;;;;;;;;;;7330547;19;153813;-16
2022/07/02 06:59:10;;;;;;;6.43;2.17;;;;;;;;;;7330021;19;161981;-16
2022/07/02 07:01:41;;;;;;;10.45;2.80;;;;;;;;;;7330065;19;162676;-16
2022/07/02 07:04:26;;;;;;;7.22;2.58;;;;;;;;;;7330418;19;154083;-16
2022/07/02 07:07:00;;;;;;;;;;;;;;;;;;7331035;19;153698;-15
2022/07/02 07:09:31;;;;;;;;;;;;;;;;;;7329400;19;161884;-17
2022/07/02 07:12:04;;;;;;;9.50;2.20;;;;;;;;;;7329881;19;162697;-16
2022/07/02 07:14:38;;;;;;;9.60;2.20;;;;;;;;;;7334716;19;154178;-16
2022/07/02 07:17:10;;;;;;;15.48;3.17;;;;;;;;;;7329924;19;153542;-16
2022/07/02 07:19:41;;;;;;;6.25;2.05;;;;;;;;;;7329453;19;161878;-16
2022/07/02 07:22:13;;;;;;;5.75;2.70;;;;;;;;;;7329587;19;162371;-16
2022/07/02 07:24:44;;;;;;;9.52;2.58;;;;;;;;;;7329772;19;154111;-17
2022/07/02 07:27:15;;;;;;;8.15;2.78;;;;;;;;;;7329643;19;153357;-17
2022/07/02 07:29:49;;;;;;;6.20;3.40;;;;;;;;;;7327936;19;162007;-17
2022/07/02 07:32:20;;;;;;;6.15;2.78;;;;;;;;;;7328992;19;162411;-17
2022/07/02 07:34:51;;;;;;;6.50;2.38;;;;;;;;;;7326892;19;154025;-16
2022/07/02 07:37:23;;;;;;;5.20;2.53;;;;;;;;;;7329334;19;153692;-16
2022/07/02 07:39:54;;;;;;;7.55;2.70;;;;;;;;;;7328908;19;161872;-15
2022/07/02 07:42:27;;;;;;;11.32;2.70;;;;;;;;;;7328668;19;162515;-15
2022/07/02 07:45:01;;;;;;;8.95;2.45;;;;;;;;;;7329161;19;154356;-16
2022/07/02 07:47:32;;;;;;;5.18;2.17;;;;;;;;;;7328976;19;153296;-15
2022/07/02 07:50:03;;;;;;;9.38;2.30;;;;;;;;;;7327402;19;161835;-15
2022/07/02 07:52:34;;;;;;;6.18;2.75;;;;;;;;;;7328700;19;162552;-15
2022/07/02 07:55:06;;;;;;;6.70;2.28;;;;;;;;;;7329094;19;154061;-15
2022/07/02 07:57:38;;;;;;;4.90;2.33;;;;;;;;;;7329073;19;153617;-16
2022/07/02 08:00:13;;;;;;;6.10;2.50;;;;;;;;;;7328384;19;161841;-15
2022/07/02 08:02:44;;;;;;;4.28;2.50;;;;;;;;;;7328398;19;162547;-15
2022/07/02 08:05:15;;;;;;;8.48;2.92;;;;;;;;;;7329684;19;154126;-15
2022/07/02 08:07:46;;;;;;;11.75;2.75;;;;;;;;;;7334523;19;153590;-16
2022/07/02 08:10:18;;;;;;;7.03;2.50;;;;;;;;;;7334345;19;161752;-15
2022/07/02 08:12:50;;;;;;;7.68;2.50;;;;;;;;;;7334861;19;162605;-16
2022/07/02 08:15:24;;;;;;;4.95;2.65;;;;;;;;;;7335268;19;154051;-16
2022/07/02 08:17:57;;;;;;;5.55;2.17;;;;;;;;;;7335107;19;153587;-16
2022/07/02 08:20:30;;;;;;;7.10;2.53;;;;;;;;;;7334598;19;161845;-16
2022/07/02 08:23:01;;;;;;;;;;;;;;;;;;7334052;19;162174;-16
2022/07/02 08:25:33;;;;;;;7.07;2.50;;;;;;;;;;7334967;19;154606;-16
2022/07/02 08:28:04;;;;;;;6.50;2.35;;;;;;;;;;7335221;19;153746;-16
2022/07/02 08:30:38;;;;;;;8.63;2.30;;;;;;;;;;7336173;19;161825;-16
2022/07/02 08:33:09;;;;;;;12.68;2.85;;;;;;;;;;7336611;19;162523;-18
2022/07/02 08:35:41;;;;;;;17.50;3.50;;;;;;;;;;7335904;19;154096;-15
2022/07/02 08:38:12;;;;;;;16.80;3.63;;;;;;;;;;7334589;19;153630;-15
2022/07/02 08:40:45;;;;;;;11.52;2.92;;;;;;;;;;7333884;19;161888;-15
2022/07/02 08:43:19;;;;;;;4.97;2.50;;;;;;;;;;7336380;19;162484;-16
2022/07/02 08:45:55;;;;;;;9.82;2.70;;;;;;;;;;7332942;19;154159;-17
2022/07/02 08:48:29;;;;;;;7.85;3.10;;;;;;;;;;7337955;19;153565;-16
2022/07/02 08:51:00;;;;;;;13.40;2.55;;;;;;;;;;7332402;19;162002;-16
2022/07/02 08:53:31;;;;;;;16.23;3.17;;;;;;;;;;7332946;19;162944;-16
2022/07/02 08:56:04;;;;;;;8.63;2.70;;;;;;;;;;7332967;19;154083;-16
2022/07/02 08:58:35;;;;;;;9.15;2.63;;;;;;;;;;7336002;19;153326;-16
2022/07/02 09:01:10;;;;;;;9.65;2.80;;;;;;;;;;7336636;19;161946;-17
2022/07/02 09:03:43;;;;;;;13.38;3.58;;;;;;;;;;7335358;19;162187;-16
2022/07/02 09:06:15;;;;;;;14.43;3.15;;;;;;;;;;7336811;19;154420;-15
2022/07/02 09:08:47;;;;;;;10.00;2.78;;;;;;;;;;7336626;19;153523;-15
2022/07/02 09:11:18;;;;;;;11.02;2.80;;;;;;;;;;7330343;19;161865;-16
2022/07/02 09:13:50;;;;;;;9.07;1.88;;;;;;;;;;7336066;19;162849;-16
2022/07/02 09:16:24;;;;;;;10.48;2.58;;;;;;;;;;7333460;19;153806;-16
2022/07/02 09:18:55;;;;;;;12.80;2.83;;;;;;;;;;7331934;19;153903;-18
2022/07/02 09:21:26;;;;;;;10.23;2.88;;;;;;;;;;7336773;19;161732;-16
2022/07/02 09:23:58;;;;;;;8.88;2.55;;;;;;;;;;7332711;19;162440;-15
2022/07/02 09:26:29;;;;;;;10.00;2.83;;;;;;;;;;7333344;19;154207;-16
2022/07/02 09:29:04;;;;;;;11.15;3.05;;;;;;;;;;7334198;19;153782;-16
2022/07/02 09:31:50;;;;;;;6.85;2.53;;;;;;;;;;7334183;19;161819;-16
2022/07/02 09:34:29;;;;;;;7.45;2.40;;;;;;;;;;7334320;19;162357;-16
2022/07/02 09:37:01;;;;;;;7.78;2.38;;;;;;;;;;7332579;19;154983;-16
2022/07/02 09:39:34;;;;;;;7.53;2.42;;;;;;;;;;7331340;19;153908;-15
2022/07/02 09:42:06;;;;;;;7.05;2.33;;;;;;;;;;7332224;19;161799;-16
2022/07/02 09:44:37;;;;;;;8.70;2.15;;;;;;;;;;7335224;19;162633;-16
2022/07/02 09:47:11;;;;;;;6.63;2.03;;;;;;;;;;7332348;19;154259;-17
2022/07/02 09:49:50;;;;;;;9.27;2.40;;;;;;;;;;7330937;19;153921;-17
2022/07/02 09:52:21;;;;;;;7.63;2.08;;;;;;;;;;7329790;19;161734;-17
2022/07/02 09:54:52;;;;;;;8.60;2.53;;;;;;;;;;7330408;19;162491;-16
2022/07/02 09:57:23;;;;;;;11.07;2.58;;;;;;;;;;7331907;19;154067;-17
2022/07/02 09:59:55;;;;;;;7.22;2.75;;;;;;;;;;7330697;19;153297;-16
2022/07/02 10:02:29;;;;;;;5.60;2.22;;;;;;;;;;7331289;19;161979;-17
2022/07/02 10:05:05;;;;;;;9.38;2.67;;;;;;;;;;7331080;19;162575;-18
2022/07/02 10:07:38;;;;;;;5.25;1.73;;;;;;;;;;7331681;19;154147;-16
2022/07/02 10:10:10;;;;;;;7.82;2.65;;;;;;;;;;7330458;19;153512;-17
2022/07/02 10:12:43;;;;;;;6.07;2.08;;;;;;;;;;7333093;19;161906;-16
2022/07/02 10:15:16;;;;;;;;;;;;;;;;;;7330434;19;162599;-16
2022/07/02 10:17:50;;;;;;;7.47;2.07;;;;;;;;;;7331416;19;154217;-16
2022/07/02 10:20:23;;;;;;;5.43;1.77;;;;;;;;;;7330060;19;153801;-16
2022/07/02 10:22:54;;;;;;;3.05;1.85;;;;;;;;;;7330305;19;162140;-16
2022/07/02 10:25:26;;;;;;;11.60;2.63;;;;;;;;;;7330820;19;162530;-16
2022/07/02 10:27:57;;;;;;;6.35;1.98;;;;;;;;;;7334352;19;154030;-16
2022/07/02 10:30:31;;;;;;;7.07;1.92;;;;;;;;;;7328179;19;153528;-16
2022/07/02 10:33:16;;;;;;;9.20;2.88;;;;;;;;;;7325187;19;162404;-16
2022/07/02 10:35:49;;;;;;;9.25;2.33;;;;;;;;;;7328041;19;162353;-16
2022/07/02 10:38:29;;;;;;;6.85;2.53;;;;;;;;;;7328339;19;154169;-16
2022/07/02 10:41:01;;;;;;;9.80;2.28;;;;;;;;;;7328346;19;153870;-16
2022/07/02 10:43:35;;;;;;;6.32;2.17;;;;;;;;;;7327267;19;161835;-16
2022/07/02 10:46:08;;;;;;;13.52;2.60;;;;;;;;;;7330294;19;162511;-16
2022/07/02 10:48:51;;;;;;;5.13;1.95;;;;;;;;;;7330663;19;154039;-17
2022/07/02 10:51:25;;;;;;;8.05;2.80;;;;;;;;;;7329889;19;153612;-16
2022/07/02 10:54:00;;;;;;;4.97;2.50;;;;;;;;;;7330043;19;161980;-18
2022/07/02 10:56:33;;;;;;;8.73;2.15;;;;;;;;;;7329947;19;162505;-16
2022/07/02 10:59:04;;;;;;;7.75;2.42;;;;;;;;;;7329240;19;154166;-16
2022/07/02 11:01:35;;;;;;;7.20;2.13;;;;;;;;;;7330229;19;153724;-16
2022/07/02 11:04:10;;;;;;;9.15;2.65;;;;;;;;;;7329717;19;161866;-16
2022/07/02 11:06:43;;;;;;;8.07;2.42;;;;;;;;;;7329993;19;162375;-16
2022/07/02 11:09:14;;;;;;;12.32;2.72;;;;;;;;;;7330044;19;154032;-16
2022/07/02 11:11:53;;;;;;;8.53;2.23;;;;;;;;;;7332065;19;153485;-17
2022/07/02 11:14:28;;;;;;;5.90;1.90;;;;;;;;;;7329695;19;162151;-17
2022/07/02 11:16:59;;;;;;;4.57;1.73;;;;;;;;;;7329573;19;162385;-16
2022/07/02 11:19:33;;;;;;;15.15;2.63;;;;;;;;;;7328530;19;154189;-16
2022/07/02 11:22:05;;;;;;;8.85;2.35;;;;;;;;;;7329652;19;153545;-16
2022/07/02 11:24:36;;;;;;;9.60;2.42;;;;;;;;;;7329175;19;161860;-16
2022/07/02 11:27:09;;;;;;;8.07;2.25;;;;;;;;;;7329265;19;162343;-16
2022/07/02 11:29:40;;;;;;;7.85;2.13;;;;;;;;;;7329600;19;154751;-16
2022/07/02 11:32:11;;;;;;;4.13;1.83;;;;;;;;;;7327109;19;153517;-16
2022/07/02 11:34:45;;;;;;;9.48;2.30;;;;;;;;;;7327103;19;162525;-16
2022/07/02 11:37:24;;;;;;;5.68;1.60;;;;;;;;;;7327699;19;162357;-16
2022/07/02 11:39:55;;;;;;;7.35;2.30;;;;;;;;;;7325616;19;153979;-17
2022/07/02 11:42:37;;;;;;;;;;;;;;;;;;7329540;19;153588;-17
2022/07/02 11:45:09;;;;;;;5.53;2.03;;;;;;;;;;7327334;19;162267;-17
2022/07/02 11:47:45;;;;;;;;;;;;;;;;;;7329147;19;162396;-17
2022/07/02 11:50:31;;;;;;;5.38;1.85;;;;;;;;;;7329065;19;154327;-17
2022/07/02 11:53:02;;;;;;;5.10;1.83;;;;;;;;;;7327433;19;153803;-17
2022/07/02 11:55:34;;;;;;;4.90;2.03;;;;;;;;;;7327929;19;161927;-16
2022/07/02 11:58:05;;;;;;;9.90;1.80;;;;;;;;;;7328055;19;162481;-16
2022/07/02 12:00:36;;;;;;;13.95;1.92;;;;;;;;;;7328571;19;154037;-16
2022/07/02 12:03:11;;;;;;;7.78;1.90;;;;;;;;;;7328300;19;153628;-17
2022/07/02 12:05:57;;;;;;;7.25;1.90;;;;;;;;;;7327901;19;161843;-17
2022/07/02 12:08:28;;;;;;;6.97;1.83;;;;;;;;;;7327851;19;162458;-18
2022/07/02 12:11:00;;;;;;;9.88;2.20;;;;;;;;;;7328196;19;154816;-17
2022/07/02 12:13:32;;;;;;;7.47;1.80;;;;;;;;;;7326552;19;153546;-18
2022/07/02 12:16:03;;;;;;;3.55;1.52;;;;;;;;;;7326366;19;161928;-18
2022/07/02 12:18:36;;;;;;;7.78;1.90;;;;;;;;;;7327605;19;162104;-17
2022/07/02 12:21:15;;;;;;;8.27;1.88;;;;;;;;;;7328014;19;154210;-17
2022/07/02 12:23:51;;;;;;;3.72;1.88;;;;;;;;;;7327792;19;153738;-16
2022/07/02 12:26:24;;;;;;;8.63;1.52;;;;;;;;;;7326519;19;161959;-17
2022/07/02 12:31:47;;;;;;;8.70;1.30;;;;;;;;;;7327718;19;154228;-16
2022/07/02 12:34:20;;;;;;;11.68;1.65;;;;;;;;;;7325458;19;153598;-17
2022/07/02 12:36:59;;;;;;;10.32;2.15;;;;;;;;;;7327290;19;161614;-16
2022/07/02 12:39:41;;;;;;;5.60;1.63;;;;;;;;;;7327365;19;162534;-17
2022/07/02 12:42:17;;;;;;;10.27;2.22;;;;;;;;;;7327920;19;154100;-17
2022/07/02 12:45:00;;;;;;;4.63;1.48;;;;;;;;;;7327456;19;153706;-16
2022/07/02 12:47:34;;;;;;;8.52;1.67;;;;;;;;;;7327124;19;161754;-16
2022/07/02 12:50:07;;;;;;;8.05;1.40;;;;;;;;;;7326783;19;162379;-17
2022/07/02 12:52:50;;;;;;;7.53;1.88;;;;;;;;;;7332497;19;154057;-17
2022/07/02 12:55:26;;;;;;;5.53;1.57;;;;;;;;;;7334322;19;153505;-17
2022/07/02 12:57:59;;;;;;;5.05;1.90;;;;;;;;;;7333429;19;161538;-16
2022/07/02 13:00:32;;;;;;;10.23;2.15;;;;;;;;;;7333548;19;162518;-16
2022/07/02 13:03:06;;;;;;;3.50;1.23;;;;;;;;;;7336696;19;154169;-16
2022/07/02 13:05:39;;;;;;;4.97;1.30;;;;;;;;;;7333711;19;153595;-17
2022/07/02 13:08:14;;;;;;;10.63;1.55;;;;;;;;;;7333547;19;161982;-17
2022/07/02 13:10:46;;;;;;;8.40;1.63;;;;;;;;;;7333138;19;162420;-18
2022/07/02 13:13:18;;;;;;;8.65;1.50;;;;;;;;;;7333141;19;154180;-17
2022/07/02 13:15:49;;;;;;;6.90;1.77;;;;;;;;;;7333235;19;153352;-17
2022/07/02 13:18:21;;;;;;;6.65;1.95;;;;;;;;;;7337148;19;161864;-16
2022/07/02 13:20:52;;;;;;;3.60;1.38;;;;;;;;;;7333113;19;162373;-16
2022/07/02 13:23:26;;;;;;;6.80;1.60;;;;;;;;;;7332171;19;154172;-16
2022/07/02 13:25:57;;;;;;;8.95;1.80;;;;;;;;;;7332122;19;153569;-17
2022/07/02 13:28:29;;;;;;;4.50;1.55;;;;;;;;;;7332883;19;161939;-16
2022/07/02 13:31:00;;;;;;;4.90;1.30;;;;;;;;;;7331611;19;162412;-17
2022/07/02 13:33:31;;;;;;;7.13;1.60;;;;;;;;;;7332036;19;154281;-17
2022/07/02 13:36:02;;;;;;;6.78;1.70;;;;;;;;;;7331858;19;153769;-18
2022/07/02 13:38:36;;;;;;;5.90;1.42;;;;;;;;;;7332574;19;161941;-16
2022/07/02 13:41:08;;;;;;;8.23;1.52;;;;;;;;;;7332594;19;162443;-16
2022/07/02 13:43:39;;;;;;;8.63;1.85;;;;;;;;;;7333075;19;154070;-16
2022/07/02 13:46:11;;;;;;;7.38;1.25;;;;;;;;;;7331439;19;153686;-16
2022/07/02 13:48:43;;;;;;;4.80;1.20;;;;;;;;;;7332682;19;161928;-16
2022/07/02 13:51:14;;;;;;;10.10;1.75;;;;;;;;;;7334082;19;162628;-17
2022/07/02 13:53:48;;;;;;;5.78;1.48;;;;;;;;;;7331591;19;154084;-16
2022/07/02 13:56:19;;;;;;;7.10;1.33;;;;;;;;;;7332600;19;154069;-16
2022/07/02 13:58:50;;;;;;;6.20;1.30;;;;;;;;;;7334308;19;161805;-17
2022/07/02 14:01:22;;;;;;;9.05;1.58;;;;;;;;;;7332913;19;162642;-17
2022/07/02 14:03:53;;;;;;;7.47;1.70;;;;;;;;;;7330674;19;153943;-17
2022/07/02 14:06:24;;;;;;;11.15;1.98;;;;;;;;;;7332102;19;153604;-16
2022/07/02 14:08:58;;;;;;;5.65;1.58;;;;;;;;;;7334924;19;161811;-16
2022/07/02 14:11:29;;;;;;;4.63;1.48;;;;;;;;;;7331506;19;162443;-17
2022/07/02 14:14:00;;;;;;;6.03;1.30;;;;;;;;;;7330999;19;154355;-17
2022/07/02 14:16:32;;;;;;;5.80;1.20;;;;;;;;;;7330676;19;153510;-17
2022/07/02 14:19:03;;;;;;;5.55;1.35;;;;;;;;;;7331609;19;161835;-17
2022/07/02 14:21:34;;;;;;;8.80;2.08;;;;;;;;;;7335553;19;162308;-17
2022/07/02 14:24:08;;;;;;;6.15;1.40;;;;;;;;;;7330732;19;154225;-17
2022/07/02 14:26:40;;;;;;;5.13;1.83;;;;;;;;;;7334797;19;153881;-17
2022/07/02 14:29:12;;;;;;;2.45;1.60;;;;;;;;;;7334474;19;161817;-17
2022/07/02 14:31:46;;;;;;;6.43;1.13;;;;;;;;;;7335053;19;162736;-17
2022/07/02 14:34:19;;;;;;;5.40;1.38;;;;;;;;;;7328079;19;154201;-16
2022/07/02 14:36:50;;;;;;;3.83;1.02;;;;;;;;;;7329603;19;153909;-17
2022/07/02 14:39:25;;;;;;;7.38;1.50;;;;;;;;;;7334649;19;161609;-16
2022/07/02 14:41:57;;;;;;;3.00;1.17;;;;;;;;;;7330543;19;162544;-17
2022/07/02 14:44:28;;;;;;;10.45;1.27;;;;;;;;;;7333678;19;154215;-17
2022/07/02 14:46:59;;;;;;;8.27;1.40;;;;;;;;;;7330602;19;153582;-16
2022/07/02 14:49:31;;;;;;;3.05;1.42;;;;;;;;;;7332176;19;161886;-16
2022/07/02 14:52:02;;;;;;;5.65;1.35;;;;;;;;;;7332216;19;162662;-16
2022/07/02 14:54:36;;;;;;;5.30;1.60;;;;;;;;;;7332274;19;154631;-17
2022/07/02 14:57:07;;;;;;;6.35;1.27;;;;;;;;;;7332161;19;154362;-17
2022/07/02 14:59:39;;;;;;;3.33;1.50;;;;;;;;;;7332215;19;161785;-17
2022/07/02 15:02:12;;;;;;;3.00;1.40;;;;;;;;;;7330564;19;162714;-16
2022/07/02 15:04:43;;;;;;;4.25;1.50;;;;;;;;;;7332011;19;153830;-16
2022/07/02 15:07:15;;;;;;;6.22;1.20;;;;;;;;;;7330732;19;153780;-17
2022/07/02 15:09:49;;;;;;;6.80;1.38;;;;;;;;;;7331617;19;162198;-16